PWSweather.com
Personal Weather Stations
Station Observations
METEOGAVA
Barcelona, GavaES

BarcelonaGavaES

Lat: 41.306286589, Lon: 1.99501499533

Elevation: 111.5

Station Type: Davis VP2+

http://meteogava.com

Latest ConditionsUpdated 7:02:31 PM GMT+01:01 Tuesday, Sep 18, 2018
Currently Today's Max Today's Min Today's Average
Temperature 73.2°F22.9°C 76.5°F24.7°C 67.5°F19.7°C 71.9°F22.2°C
Dew Point 69.5°F20.8°C 70.2°F21.2°C 64.5°F18.1°C 67.0°F19.4°C
Winds Calm Calm 10.0 mph -16.1 kmh - - 3.9 mph 6.3 kmh
Wind Gusts 3.0 mph4.8 kmh 17.0 mph27.4 kmh - -
Humidity 88% 93% 75% 85%
Pressure 30.01 in1016.3 mb 30.03 in1016.9 mb 29.98 in1015.2 mb -
Precipitation - 0.25 in6.4 mm - -
Hour Temp Dew Point Humidity Winds Wind Gusts Pressure Precip Precip Rate Daily Precip Total
07:02 PM 73.2°F22.9°C 69.5°F20.8°C 88% Calm Calm 3.0 mph4.8 kmh 30.01 in1016.3 mb 0.00 in0.0 mm 0.00 in0.0 mm 0.25 in6.4 mm
06:47 PM 73.8°F23.2°C 69.6°F20.9°C 87% Calm Calm 1.0 mph1.6 kmh 30.01 in1016.3 mb 0.00 in0.0 mm 0.00 in0.0 mm 0.25 in6.4 mm
06:32 PM 74.5°F23.6°C 70.0°F21.1°C 86% Calm Calm 1.0 mph1.6 kmh 30.00 in1015.9 mb 0.00 in0.0 mm 0.00 in0.0 mm 0.25 in6.4 mm
06:17 PM 74.7°F23.7°C 69.8°F21.0°C 85% Calm Calm 4.0 mph6.4 kmh 30.01 in1016.3 mb 0.00 in0.0 mm 0.00 in0.0 mm 0.25 in6.4 mm
06:02 PM 74.5°F23.6°C 69.7°F20.9°C 85% Calm Calm 4.0 mph6.4 kmh 30.01 in1016.3 mb 0.00 in0.0 mm 0.00 in0.0 mm 0.25 in6.4 mm
05:47 PM 74.7°F23.7°C 70.2°F21.2°C 86% Calm Calm 2.0 mph3.2 kmh 30.01 in1016.3 mb 0.00 in0.0 mm 0.00 in0.0 mm 0.25 in6.4 mm
05:32 PM 73.9°F23.3°C 69.5°F20.8°C 86% Calm Calm 3.0 mph4.8 kmh 30.01 in1016.3 mb 0.00 in0.0 mm 0.00 in0.0 mm 0.25 in6.4 mm
05:17 PM 74.1°F23.4°C 69.7°F20.9°C 86% 1.0 mph SSW1.6 kmh SSW 3.0 mph4.8 kmh 30.00 in1015.9 mb 0.00 in0.0 mm 0.00 in0.0 mm 0.25 in6.4 mm
05:02 PM 74.5°F23.6°C 70.0°F21.1°C 86% Calm Calm 3.0 mph4.8 kmh 30.00 in1015.9 mb 0.00 in0.0 mm 0.00 in0.0 mm 0.25 in6.4 mm
04:47 PM 74.3°F23.5°C 69.1°F20.6°C 84% 1.0 mph SSW1.6 kmh SSW 1.0 mph1.6 kmh 30.00 in1015.9 mb 0.00 in0.0 mm 0.00 in0.0 mm 0.25 in6.4 mm
04:32 PM 74.5°F23.6°C 69.7°F20.9°C 85% Calm Calm 4.0 mph6.4 kmh 30.00 in1015.9 mb 0.00 in0.0 mm 0.00 in0.0 mm 0.25 in6.4 mm
04:17 PM 73.4°F23.0°C 69.3°F20.7°C 87% 1.0 mph SSW1.6 kmh SSW 2.0 mph3.2 kmh 30.00 in1015.9 mb 0.01 in0.3 mm 0.00 in0.0 mm 0.25 in6.4 mm
04:02 PM 73.0°F22.8°C 69.6°F20.9°C 89% 1.0 mph SSE1.6 kmh SSE 5.0 mph8.0 kmh 30.01 in1016.3 mb 0.01 in0.3 mm 0.00 in0.0 mm 0.25 in6.4 mm
03:47 PM 72.9°F22.7°C 69.1°F20.6°C 88% 1.0 mph SE1.6 kmh SE 1.0 mph1.6 kmh 30.02 in1016.6 mb 0.01 in0.3 mm 0.00 in0.0 mm 0.25 in6.4 mm
03:32 PM 72.5°F22.5°C 68.4°F20.2°C 87% 5.0 mph SE8.0 kmh SE 9.0 mph14.5 kmh 30.02 in1016.6 mb 0.01 in0.3 mm 0.04 in1.0 mm 0.25 in6.4 mm
03:17 PM 73.2°F22.9°C 68.1°F20.1°C 84% 9.0 mph E14.5 kmh E 17.0 mph27.4 kmh 30.01 in1016.3 mb 0.00 in0.0 mm 0.00 in0.0 mm 0.24 in6.1 mm
03:02 PM 74.8°F23.8°C 70.0°F21.1°C 85% 7.0 mph E11.3 kmh E 13.0 mph20.9 kmh 30.01 in1016.3 mb 0.00 in0.0 mm 0.00 in0.0 mm 0.24 in6.1 mm
02:47 PM 75.4°F24.1°C 69.9°F21.1°C 83% 9.0 mph E14.5 kmh E 15.0 mph24.1 kmh 30.01 in1016.3 mb 0.00 in0.0 mm 0.00 in0.0 mm 0.24 in6.1 mm
02:32 PM 75.2°F24.0°C 70.0°F21.1°C 84% 7.0 mph ENE11.3 kmh ENE 16.0 mph25.7 kmh 30.01 in1016.3 mb 0.00 in0.0 mm 0.00 in0.0 mm 0.24 in6.1 mm
02:17 PM 75.4°F24.1°C 69.9°F21.1°C 83% 7.0 mph E11.3 kmh E 15.0 mph24.1 kmh 30.01 in1016.3 mb 0.00 in0.0 mm 0.00 in0.0 mm 0.24 in6.1 mm
02:02 PM 74.7°F23.7°C 69.5°F20.8°C 84% 7.0 mph E11.3 kmh E 17.0 mph27.4 kmh 30.02 in1016.6 mb 0.00 in0.0 mm 0.00 in0.0 mm 0.24 in6.1 mm
01:47 PM 74.5°F23.6°C 69.0°F20.6°C 83% 7.0 mph ENE11.3 kmh ENE 15.0 mph24.1 kmh 30.03 in1016.9 mb 0.00 in0.0 mm 0.00 in0.0 mm 0.24 in6.1 mm
01:32 PM 75.2°F24.0°C 69.0°F20.6°C 81% 8.0 mph E12.9 kmh E 12.0 mph19.3 kmh 30.03 in1016.9 mb 0.00 in0.0 mm 0.00 in0.0 mm 0.24 in6.1 mm
01:17 PM 74.8°F23.8°C 67.9°F19.9°C 79% 10.0 mph E16.1 kmh E 17.0 mph27.4 kmh 30.03 in1016.9 mb 0.00 in0.0 mm 0.00 in0.0 mm 0.24 in6.1 mm
01:02 PM 74.5°F23.6°C 68.3°F20.2°C 81% 10.0 mph E16.1 kmh E 15.0 mph24.1 kmh 30.03 in1016.9 mb 0.00 in0.0 mm 0.00 in0.0 mm 0.24 in6.1 mm
12:47 PM 75.4°F24.1°C 68.4°F20.2°C 79% 7.0 mph E11.3 kmh E 16.0 mph25.7 kmh 30.03 in1016.9 mb 0.00 in0.0 mm 0.00 in0.0 mm 0.24 in6.1 mm
12:32 PM 75.6°F24.2°C 68.2°F20.1°C 78% 6.0 mph E9.7 kmh E 11.0 mph17.7 kmh 30.02 in1016.6 mb 0.00 in0.0 mm 0.00 in0.0 mm 0.24 in6.1 mm
12:17 PM 75.6°F24.2°C 67.8°F19.9°C 77% 4.0 mph ESE6.4 kmh ESE 14.0 mph22.5 kmh 30.02 in1016.6 mb 0.00 in0.0 mm 0.00 in0.0 mm 0.24 in6.1 mm
12:02 PM 75.4°F24.1°C 67.3°F19.6°C 76% 4.0 mph ENE6.4 kmh ENE 11.0 mph17.7 kmh 30.02 in1016.6 mb 0.00 in0.0 mm 0.00 in0.0 mm 0.24 in6.1 mm
11:47 AM 76.5°F24.7°C 67.9°F19.9°C 75% 1.0 mph NE1.6 kmh NE 5.0 mph8.0 kmh 30.02 in1016.6 mb 0.00 in0.0 mm 0.00 in0.0 mm 0.24 in6.1 mm
11:32 AM 75.9°F24.4°C 67.4°F19.7°C 75% 3.0 mph N4.8 kmh N 5.0 mph8.0 kmh 30.02 in1016.6 mb 0.00 in0.0 mm 0.00 in0.0 mm 0.24 in6.1 mm
11:17 AM 73.9°F23.3°C 67.0°F19.4°C 79% 4.0 mph NW6.4 kmh NW 7.0 mph11.3 kmh 30.02 in1016.6 mb 0.00 in0.0 mm 0.00 in0.0 mm 0.24 in6.1 mm
11:02 AM 72.9°F22.7°C 67.0°F19.4°C 82% 5.0 mph NW8.0 kmh NW 10.0 mph16.1 kmh 30.01 in1016.3 mb 0.00 in0.0 mm 0.00 in0.0 mm 0.24 in6.1 mm
10:47 AM 72.3°F22.4°C 67.2°F19.6°C 84% 4.0 mph NNW6.4 kmh NNW 10.0 mph16.1 kmh 30.00 in1015.9 mb 0.00 in0.0 mm 0.00 in0.0 mm 0.24 in6.1 mm
10:32 AM 70.7°F21.5°C 66.6°F19.2°C 87% 5.0 mph N8.0 kmh N 11.0 mph17.7 kmh 30.00 in1015.9 mb 0.01 in0.3 mm 0.00 in0.0 mm 0.24 in6.1 mm
10:17 AM 69.3°F20.7°C 66.2°F19.0°C 90% 4.0 mph N6.4 kmh N 8.0 mph12.9 kmh 30.00 in1015.9 mb 0.01 in0.3 mm 0.00 in0.0 mm 0.24 in6.1 mm
10:02 AM 68.5°F20.3°C 66.1°F18.9°C 92% 4.0 mph NW6.4 kmh NW 6.0 mph9.7 kmh 30.01 in1016.3 mb 0.01 in0.3 mm 0.00 in0.0 mm 0.24 in6.1 mm
09:47 AM 68.2°F20.1°C 65.8°F18.8°C 92% 5.0 mph NNW8.0 kmh NNW 14.0 mph22.5 kmh 30.01 in1016.3 mb 0.02 in0.5 mm 0.00 in0.0 mm 0.24 in6.1 mm
09:32 AM 67.6°F19.8°C 65.5°F18.6°C 93% 3.0 mph NNW4.8 kmh NNW 7.0 mph11.3 kmh 30.02 in1016.6 mb 0.03 in0.8 mm 0.00 in0.0 mm 0.24 in6.1 mm
09:17 AM 67.5°F19.7°C 65.1°F18.4°C 92% 3.0 mph N4.8 kmh N 7.0 mph11.3 kmh 30.02 in1016.6 mb 0.04 in1.0 mm 0.00 in0.0 mm 0.24 in6.1 mm
09:02 AM 67.5°F19.7°C 65.1°F18.4°C 92% 3.0 mph NW4.8 kmh NW 9.0 mph14.5 kmh 30.02 in1016.6 mb 0.06 in1.5 mm 0.00 in0.0 mm 0.23 in5.8 mm
08:47 AM 67.6°F19.8°C 64.9°F18.3°C 91% 2.0 mph NW3.2 kmh NW 7.0 mph11.3 kmh 30.02 in1016.6 mb 0.08 in2.0 mm 0.00 in0.0 mm 0.22 in5.6 mm
08:32 AM 67.6°F19.8°C 64.9°F18.3°C 91% 1.0 mph NW1.6 kmh NW 5.0 mph8.0 kmh 30.02 in1016.6 mb 0.10 in2.5 mm 0.00 in0.0 mm 0.20 in5.1 mm
08:17 AM 67.5°F19.7°C 64.7°F18.2°C 91% 2.0 mph NW3.2 kmh NW 7.0 mph11.3 kmh 30.02 in1016.6 mb 0.16 in4.1 mm 0.00 in0.0 mm 0.20 in5.1 mm
08:02 AM 68.4°F20.2°C 65.3°F18.5°C 90% 2.0 mph NNW3.2 kmh NNW 3.0 mph4.8 kmh 30.02 in1016.6 mb 0.17 in4.3 mm 0.05 in1.3 mm 0.17 in4.3 mm
07:47 AM 67.8°F19.9°C 64.5°F18.1°C 89% 4.0 mph NW6.4 kmh NW 7.0 mph11.3 kmh 30.02 in1016.6 mb 0.13 in3.3 mm 0.12 in3.0 mm 0.14 in3.6 mm
07:32 AM 67.8°F19.9°C 64.8°F18.2°C 90% 4.0 mph WNW6.4 kmh WNW 6.0 mph9.7 kmh 30.02 in1016.6 mb 0.10 in2.5 mm 0.24 in6.1 mm 0.10 in2.5 mm
07:17 AM 69.3°F20.7°C 65.2°F18.4°C 87% 2.0 mph W3.2 kmh W 7.0 mph11.3 kmh 30.02 in1016.6 mb 0.04 in1.0 mm 0.12 in3.0 mm 0.04 in1.0 mm
07:02 AM 70.2°F21.2°C 65.8°F18.8°C 86% 1.0 mph WSW1.6 kmh WSW 5.0 mph8.0 kmh 30.03 in1016.9 mb 0.01 in0.3 mm 0.00 in0.0 mm 0.01 in0.3 mm
06:47 AM 70.2°F21.2°C 66.1°F18.9°C 87% 4.0 mph WNW6.4 kmh WNW 9.0 mph14.5 kmh 30.02 in1016.6 mb 0.01 in0.3 mm 0.04 in1.0 mm 0.01 in0.3 mm
06:32 AM 69.8°F21.0°C 65.4°F18.6°C 86% 4.0 mph NW6.4 kmh NW 7.0 mph11.3 kmh 30.00 in1015.9 mb 0.00 in0.0 mm 0.00 in0.0 mm 0.00 in0.0 mm
06:17 AM 70.2°F21.2°C 64.8°F18.2°C 83% 6.0 mph NW9.7 kmh NW 10.0 mph16.1 kmh 30.00 in1015.9 mb 0.00 in0.0 mm 0.00 in0.0 mm 0.00 in0.0 mm
06:02 AM 70.9°F21.6°C 64.8°F18.2°C 81% 5.0 mph NW8.0 kmh NW 9.0 mph14.5 kmh 29.99 in1015.6 mb 0.00 in0.0 mm 0.00 in0.0 mm 0.00 in0.0 mm
05:47 AM 71.1°F21.7°C 64.9°F18.3°C 81% 5.0 mph NW8.0 kmh NW 10.0 mph16.1 kmh 29.99 in1015.6 mb 0.00 in0.0 mm 0.00 in0.0 mm 0.00 in0.0 mm
05:32 AM 70.9°F21.6°C 64.8°F18.2°C 81% 5.0 mph NW8.0 kmh NW 10.0 mph16.1 kmh 29.98 in1015.2 mb 0.00 in0.0 mm 0.00 in0.0 mm 0.00 in0.0 mm
05:17 AM 70.9°F21.6°C 64.8°F18.2°C 81% 4.0 mph NNW6.4 kmh NNW 9.0 mph14.5 kmh 29.99 in1015.6 mb 0.00 in0.0 mm 0.00 in0.0 mm 0.00 in0.0 mm
05:02 AM 70.9°F21.6°C 65.1°F18.4°C 82% 6.0 mph NNW9.7 kmh NNW 12.0 mph19.3 kmh 29.99 in1015.6 mb 0.00 in0.0 mm 0.00 in0.0 mm 0.00 in0.0 mm
04:47 AM 70.9°F21.6°C 65.1°F18.4°C 82% 4.0 mph NW6.4 kmh NW 9.0 mph14.5 kmh 29.99 in1015.6 mb 0.00 in0.0 mm 0.00 in0.0 mm 0.00 in0.0 mm
04:32 AM 70.9°F21.6°C 65.1°F18.4°C 82% 5.0 mph NW8.0 kmh NW 9.0 mph14.5 kmh 29.99 in1015.6 mb 0.00 in0.0 mm 0.00 in0.0 mm 0.00 in0.0 mm
04:17 AM 70.9°F21.6°C 65.1°F18.4°C 82% 5.0 mph NW8.0 kmh NW 11.0 mph17.7 kmh 29.98 in1015.2 mb 0.00 in0.0 mm 0.00 in0.0 mm 0.00 in0.0 mm
04:02 AM 70.9°F21.6°C 65.5°F18.6°C 83% 4.0 mph NW6.4 kmh NW 9.0 mph14.5 kmh 29.98 in1015.2 mb 0.00 in0.0 mm 0.00 in0.0 mm 0.00 in0.0 mm
03:47 AM 70.5°F21.4°C 65.1°F18.4°C 83% 6.0 mph NW9.7 kmh NW 10.0 mph16.1 kmh 29.99 in1015.6 mb 0.00 in0.0 mm 0.00 in0.0 mm 0.00 in0.0 mm
03:32 AM 70.3°F21.3°C 65.3°F18.5°C 84% 4.0 mph NW6.4 kmh NW 8.0 mph12.9 kmh 30.00 in1015.9 mb 0.00 in0.0 mm 0.00 in0.0 mm 0.00 in0.0 mm
03:17 AM 70.3°F21.3°C 65.3°F18.5°C 84% 5.0 mph NW8.0 kmh NW 9.0 mph14.5 kmh 29.99 in1015.6 mb 0.00 in0.0 mm 0.00 in0.0 mm 0.00 in0.0 mm
03:02 AM 70.3°F21.3°C 65.3°F18.5°C 84% 5.0 mph NW8.0 kmh NW 10.0 mph16.1 kmh 30.01 in1016.3 mb 0.00 in0.0 mm 0.00 in0.0 mm 0.00 in0.0 mm
02:47 AM 70.3°F21.3°C 65.3°F18.5°C 84% 5.0 mph NW8.0 kmh NW 9.0 mph14.5 kmh 30.01 in1016.3 mb 0.00 in0.0 mm 0.00 in0.0 mm 0.00 in0.0 mm
02:32 AM 70.3°F21.3°C 65.3°F18.5°C 84% 6.0 mph NW9.7 kmh NW 10.0 mph16.1 kmh 30.02 in1016.6 mb 0.00 in0.0 mm 0.00 in0.0 mm 0.00 in0.0 mm
02:17 AM 70.3°F21.3°C 65.3°F18.5°C 84% 6.0 mph NW9.7 kmh NW 9.0 mph14.5 kmh 30.02 in1016.6 mb 0.00 in0.0 mm 0.00 in0.0 mm 0.00 in0.0 mm
02:02 AM 70.2°F21.2°C 65.4°F18.6°C 85% 6.0 mph NW9.7 kmh NW 10.0 mph16.1 kmh 30.02 in1016.6 mb 0.00 in0.0 mm 0.00 in0.0 mm 0.00 in0.0 mm
01:47 AM 70.2°F21.2°C 65.4°F18.6°C 85% 4.0 mph NW6.4 kmh NW 11.0 mph17.7 kmh 30.02 in1016.6 mb 0.00 in0.0 mm 0.00 in0.0 mm 0.00 in0.0 mm
01:32 AM 70.5°F21.4°C 65.8°F18.8°C 85% 4.0 mph NW6.4 kmh NW 7.0 mph11.3 kmh 30.02 in1016.6 mb 0.00 in0.0 mm 0.00 in0.0 mm 0.00 in0.0 mm
01:17 AM 70.5°F21.4°C 65.8°F18.8°C 85% 4.0 mph NW6.4 kmh NW 7.0 mph11.3 kmh 30.02 in1016.6 mb 0.00 in0.0 mm 0.00 in0.0 mm 0.00 in0.0 mm
01:02 AM 70.5°F21.4°C 65.8°F18.8°C 85% 5.0 mph NW8.0 kmh NW 8.0 mph12.9 kmh 30.02 in1016.6 mb 0.00 in0.0 mm 0.00 in0.0 mm 0.00 in0.0 mm
12:47 AM 71.1°F21.7°C 66.7°F19.3°C 86% 3.0 mph NW4.8 kmh NW 7.0 mph11.3 kmh 30.02 in1016.6 mb 0.00 in0.0 mm 0.00 in0.0 mm 0.00 in0.0 mm
12:32 AM 71.8°F22.1°C 67.0°F19.4°C 85% 3.0 mph NNW4.8 kmh NNW 7.0 mph11.3 kmh 30.02 in1016.6 mb 0.00 in0.0 mm 0.00 in0.0 mm 0.00 in0.0 mm
12:17 AM 72.0°F22.2°C 66.9°F19.4°C 84% 3.0 mph NNW4.8 kmh NNW 6.0 mph9.7 kmh 30.03 in1016.9 mb 0.00 in0.0 mm 0.00 in0.0 mm 0.00 in0.0 mm
12:02 AM 72.0°F22.2°C 67.2°F19.6°C 85% 2.0 mph NNE3.2 kmh NNE 5.0 mph8.0 kmh 30.03 in1016.9 mb 0.00 in0.0 mm 0.00 in0.0 mm 0.00 in0.0 mm